Terminal Aerodrome Forecast
Issued by NWS

Home | Current Version | Previous Version | Text Only | Print | Product List | Glossary On
Versions: 1 2 3 4 5 6 7 8 9 10 11 12 13 14 15 16 17 18 19 20 21 22 23 24 25 26 27 28 29 30 31 32 33 34 35 36
931
FTUS44 KLZK 230541
TAFLIT
TAF
KLIT 230541Z 2306/2406 18007KT P6SM VCSH OVC060
     FM231100 24005KT P6SM VCSH SCT015 BKN025 OVC040
      TEMPO 2312/2316 4SM -SHRA BR OVC025
     FM231600 25006KT 5SM -SHRA BR VCTS SCT015 OVC025CB PROB30
      2316/2322 4SM -TSRA BR BKN008 OVC015CB
     FM240000 06005KT P6SM VCSH BKN025 OVC050=

USA.gov is the U.S. government's official web portal to all federal, state and local government web resources and services.